Airfield :
LOGIN :

Register | Disclaimer

   EN    FR    IT 

 










Legend :    VFR   Marginal VFR   IFR   Intensive IFR   Very Intensive IFR
Visi :
Ceiling :
>= 8 km
>= 3000ft
5 to 8 km
1000 to 3000 ft
1500m to 5 km
500 to 1000 ft
800 to 1500m
200 to 500 ft
< 800m
< 200 ft
Symbols :   Thunderstorms  Fog  Heavy snow  Heavy precipitations  Wind > 20 kt
SIGMETs :     Misc.  Thunderstorms  Icing  Turbulence  Mountain Waves  Volcanic Ashes






- Airport Elevation : 287 ft


LFRL - Lanveoc Poulmic

CURRENT METAR :
  • 232200Z AUTO 25009KT 7000 OVC005 16/15 Q1006

EXPIRED METARs :
  • 232130Z AUTO 26010KT 230V310 7000 OVC006 16/15 Q1006
  • 232100Z AUTO 31010KT 7000 SCT007 16/15 Q1005
  • 232030Z AUTO 30010KT 9000 SCT004 16/15 Q1004
  • 232000Z AUTO 29011KT 5000 BR BKN004 BKN037 BKN130 16/16 Q1004
  • 231930Z AUTO 19004KT 160V220 7000 BKN005/// BKN020/// BKN027/// ///CB 19/18 Q1004

TAF TAF LFRL
Valid from the 23 at 12:00 until the 24 at 12:00 UTC


231100Z 2312/2412 03005KT 9999 SCT040 OVC100TCU
TEMPO 2312/2320 VRB15G30KT TSRA SCT030CB
PROB30
TEMPO 2312/2320 VRB25G40KT 1000 TSRAGR
BECMG 2319/2321 21010KT
TEMPO 2320/2406 3000 SHRA BKN005 BKN010CB
TEMPO 2406/2412 2000 TSRA BKN015CB



MET'MAP, your aeronautical weather chart ! - Copyright ORBIFLY December 2007 - Disclaimer

ORBIFLY MET'MAP TEAM :

Programming & Development : Alexandra Zaïnal
Concept & original design : Baudouin d'Aumeries
Assistance for programming : Marc-Olivier Méhu
Technical & hardware support : Manuel Goepfert

Contact : metmap@orbifly.com




SOURCES & CREDITS :

   NOAA